sensor_id;sensor_type;location;lat;lon;timestamp;P1;durP1;ratioP1;P2;durP2;ratioP2
49730;SDS011;35622;52.008;5.426;2023-07-22T00:00:38;11.90;;;6.13;;
49730;SDS011;35622;52.008;5.426;2023-07-22T00:03:03;10.85;;;6.32;;
49730;SDS011;35622;52.008;5.426;2023-07-22T00:05:29;11.73;;;6.80;;
49730;SDS011;35622;52.008;5.426;2023-07-22T00:07:54;10.52;;;7.15;;
49730;SDS011;35622;52.008;5.426;2023-07-22T00:10:20;12.52;;;7.50;;
49730;SDS011;35622;52.008;5.426;2023-07-22T00:12:45;11.18;;;6.28;;
49730;SDS011;35622;52.008;5.426;2023-07-22T00:15:11;11.75;;;6.35;;
49730;SDS011;35622;52.008;5.426;2023-07-22T00:17:37;10.95;;;6.55;;
49730;SDS011;35622;52.008;5.426;2023-07-22T00:20:03;12.18;;;7.15;;
49730;SDS011;35622;52.008;5.426;2023-07-22T00:22:30;12.05;;;6.40;;
49730;SDS011;35622;52.008;5.426;2023-07-22T00:24:56;11.80;;;6.88;;
49730;SDS011;35622;52.008;5.426;2023-07-22T00:27:24;12.95;;;6.80;;
49730;SDS011;35622;52.008;5.426;2023-07-22T00:29:50;10.07;;;6.38;;
49730;SDS011;35622;52.008;5.426;2023-07-22T00:32:16;10.70;;;6.55;;
49730;SDS011;35622;52.008;5.426;2023-07-22T00:34:41;12.48;;;6.45;;
49730;SDS011;35622;52.008;5.426;2023-07-22T00:37:07;10.98;;;6.47;;
49730;SDS011;35622;52.008;5.426;2023-07-22T00:39:32;11.63;;;6.22;;
49730;SDS011;35622;52.008;5.426;2023-07-22T00:41:58;12.82;;;7.50;;
49730;SDS011;35622;52.008;5.426;2023-07-22T00:44:23;12.13;;;7.53;;
49730;SDS011;35622;52.008;5.426;2023-07-22T00:46:49;10.38;;;6.68;;
49730;SDS011;35622;52.008;5.426;2023-07-22T00:49:17;14.90;;;7.18;;
49730;SDS011;35622;52.008;5.426;2023-07-22T00:51:43;10.15;;;7.05;;
49730;SDS011;35622;52.008;5.426;2023-07-22T00:54:08;11.40;;;7.15;;
49730;SDS011;35622;52.008;5.426;2023-07-22T00:56:35;11.63;;;6.95;;
49730;SDS011;35622;52.008;5.426;2023-07-22T00:59:02;15.43;;;7.30;;
49730;SDS011;35622;52.008;5.426;2023-07-22T01:01:28;12.65;;;7.35;;
49730;SDS011;35622;52.008;5.426;2023-07-22T01:03:53;13.00;;;7.18;;
49730;SDS011;35622;52.008;5.426;2023-07-22T01:06:19;13.63;;;7.60;;
49730;SDS011;35622;52.008;5.426;2023-07-22T01:08:46;11.20;;;7.20;;
49730;SDS011;35622;52.008;5.426;2023-07-22T01:11:13;10.80;;;7.10;;
49730;SDS011;35622;52.008;5.426;2023-07-22T01:13:39;12.80;;;7.05;;
49730;SDS011;35622;52.008;5.426;2023-07-22T01:16:05;11.90;;;6.93;;
49730;SDS011;35622;52.008;5.426;2023-07-22T01:18:32;10.88;;;6.93;;
49730;SDS011;35622;52.008;5.426;2023-07-22T01:20:58;11.88;;;6.80;;
49730;SDS011;35622;52.008;5.426;2023-07-22T01:23:24;12.25;;;7.03;;
49730;SDS011;35622;52.008;5.426;2023-07-22T01:25:50;13.18;;;7.38;;
49730;SDS011;35622;52.008;5.426;2023-07-22T01:28:16;12.63;;;7.20;;
49730;SDS011;35622;52.008;5.426;2023-07-22T01:30:42;13.57;;;7.47;;
49730;SDS011;35622;52.008;5.426;2023-07-22T01:33:07;12.50;;;7.75;;
49730;SDS011;35622;52.008;5.426;2023-07-22T01:35:33;14.70;;;8.00;;
49730;SDS011;35622;52.008;5.426;2023-07-22T01:37:58;15.05;;;8.23;;
49730;SDS011;35622;52.008;5.426;2023-07-22T01:40:24;14.68;;;8.77;;
49730;SDS011;35622;52.008;5.426;2023-07-22T01:42:50;14.00;;;8.43;;
49730;SDS011;35622;52.008;5.426;2023-07-22T01:45:16;16.10;;;8.52;;
49730;SDS011;35622;52.008;5.426;2023-07-22T01:47:42;14.48;;;7.72;;
49730;SDS011;35622;52.008;5.426;2023-07-22T01:50:07;14.25;;;8.32;;
49730;SDS011;35622;52.008;5.426;2023-07-22T01:52:34;14.55;;;8.45;;
49730;SDS011;35622;52.008;5.426;2023-07-22T01:55:00;15.02;;;8.43;;
49730;SDS011;35622;52.008;5.426;2023-07-22T01:57:26;14.35;;;8.25;;
49730;SDS011;35622;52.008;5.426;2023-07-22T01:59:51;16.30;;;9.27;;
49730;SDS011;35622;52.008;5.426;2023-07-22T02:02:17;15.15;;;8.82;;
49730;SDS011;35622;52.008;5.426;2023-07-22T02:04:43;16.05;;;8.60;;
49730;SDS011;35622;52.008;5.426;2023-07-22T02:07:09;13.15;;;7.93;;
49730;SDS011;35622;52.008;5.426;2023-07-22T02:09:35;13.82;;;7.85;;
49730;SDS011;35622;52.008;5.426;2023-07-22T02:12:00;17.85;;;8.85;;
49730;SDS011;35622;52.008;5.426;2023-07-22T02:14:26;15.55;;;8.88;;
49730;SDS011;35622;52.008;5.426;2023-07-22T02:16:52;16.55;;;8.77;;
49730;SDS011;35622;52.008;5.426;2023-07-22T02:19:17;15.10;;;8.15;;
49730;SDS011;35622;52.008;5.426;2023-07-22T02:21:43;18.45;;;8.80;;
49730;SDS011;35622;52.008;5.426;2023-07-22T02:24:09;16.00;;;8.68;;
49730;SDS011;35622;52.008;5.426;2023-07-22T02:26:35;15.57;;;8.73;;
49730;SDS011;35622;52.008;5.426;2023-07-22T02:29:01;14.85;;;7.88;;
49730;SDS011;35622;52.008;5.426;2023-07-22T02:31:27;14.52;;;8.45;;
49730;SDS011;35622;52.008;5.426;2023-07-22T02:33:52;17.02;;;9.00;;
49730;SDS011;35622;52.008;5.426;2023-07-22T02:36:18;14.27;;;7.93;;
49730;SDS011;35622;52.008;5.426;2023-07-22T02:38:43;17.45;;;8.30;;
49730;SDS011;35622;52.008;5.426;2023-07-22T02:41:09;14.45;;;8.45;;
49730;SDS011;35622;52.008;5.426;2023-07-22T02:43:34;14.23;;;7.90;;
49730;SDS011;35622;52.008;5.426;2023-07-22T02:46:01;14.68;;;8.60;;
49730;SDS011;35622;52.008;5.426;2023-07-22T02:48:28;14.27;;;7.63;;
49730;SDS011;35622;52.008;5.426;2023-07-22T02:50:54;14.90;;;8.88;;
49730;SDS011;35622;52.008;5.426;2023-07-22T02:53:20;15.73;;;8.23;;
49730;SDS011;35622;52.008;5.426;2023-07-22T02:55:45;15.52;;;8.35;;
49730;SDS011;35622;52.008;5.426;2023-07-22T02:58:11;17.48;;;9.15;;
49730;SDS011;35622;52.008;5.426;2023-07-22T03:00:37;17.10;;;8.52;;
49730;SDS011;35622;52.008;5.426;2023-07-22T03:03:03;17.35;;;8.75;;
49730;SDS011;35622;52.008;5.426;2023-07-22T03:05:30;16.50;;;9.05;;
49730;SDS011;35622;52.008;5.426;2023-07-22T03:07:57;17.65;;;9.10;;
49730;SDS011;35622;52.008;5.426;2023-07-22T03:10:23;16.02;;;8.30;;
49730;SDS011;35622;52.008;5.426;2023-07-22T03:12:50;16.10;;;7.82;;
49730;SDS011;35622;52.008;5.426;2023-07-22T03:15:20;19.33;;;9.52;;
49730;SDS011;35622;52.008;5.426;2023-07-22T03:17:50;17.55;;;8.35;;
49730;SDS011;35622;52.008;5.426;2023-07-22T03:20:16;17.50;;;9.40;;
49730;SDS011;35622;52.008;5.426;2023-07-22T03:22:43;18.65;;;9.60;;
49730;SDS011;35622;52.008;5.426;2023-07-22T03:25:09;17.15;;;9.57;;
49730;SDS011;35622;52.008;5.426;2023-07-22T03:27:36;17.23;;;9.07;;
49730;SDS011;35622;52.008;5.426;2023-07-22T03:30:02;18.85;;;10.13;;
49730;SDS011;35622;52.008;5.426;2023-07-22T03:32:29;16.23;;;8.80;;
49730;SDS011;35622;52.008;5.426;2023-07-22T03:34:54;17.98;;;9.23;;
49730;SDS011;35622;52.008;5.426;2023-07-22T03:37:20;18.13;;;9.27;;
49730;SDS011;35622;52.008;5.426;2023-07-22T03:39:45;18.05;;;9.63;;
49730;SDS011;35622;52.008;5.426;2023-07-22T03:42:11;17.98;;;8.82;;
49730;SDS011;35622;52.008;5.426;2023-07-22T03:44:37;18.52;;;9.70;;
49730;SDS011;35622;52.008;5.426;2023-07-22T03:47:02;14.98;;;8.43;;
49730;SDS011;35622;52.008;5.426;2023-07-22T03:49:28;17.25;;;9.65;;
49730;SDS011;35622;52.008;5.426;2023-07-22T03:51:53;19.23;;;9.45;;
49730;SDS011;35622;52.008;5.426;2023-07-22T03:54:19;16.05;;;9.02;;
49730;SDS011;35622;52.008;5.426;2023-07-22T03:56:44;19.73;;;9.85;;
49730;SDS011;35622;52.008;5.426;2023-07-22T03:59:10;20.25;;;10.50;;
49730;SDS011;35622;52.008;5.426;2023-07-22T04:01:35;17.83;;;9.30;;
49730;SDS011;35622;52.008;5.426;2023-07-22T04:04:01;18.42;;;9.68;;
49730;SDS011;35622;52.008;5.426;2023-07-22T04:06:26;18.15;;;9.63;;
49730;SDS011;35622;52.008;5.426;2023-07-22T04:08:52;17.52;;;9.13;;
49730;SDS011;35622;52.008;5.426;2023-07-22T04:11:18;18.65;;;9.25;;
49730;SDS011;35622;52.008;5.426;2023-07-22T04:13:43;20.35;;;10.23;;
49730;SDS011;35622;52.008;5.426;2023-07-22T04:16:09;17.65;;;8.88;;
49730;SDS011;35622;52.008;5.426;2023-07-22T04:18:34;21.35;;;9.27;;
49730;SDS011;35622;52.008;5.426;2023-07-22T04:21:00;19.83;;;9.95;;
49730;SDS011;35622;52.008;5.426;2023-07-22T04:23:26;19.42;;;10.15;;
49730;SDS011;35622;52.008;5.426;2023-07-22T04:25:52;22.58;;;10.13;;
49730;SDS011;35622;52.008;5.426;2023-07-22T04:28:18;18.33;;;10.02;;
49730;SDS011;35622;52.008;5.426;2023-07-22T04:30:53;20.80;;;10.75;;
49730;SDS011;35622;52.008;5.426;2023-07-22T04:33:23;19.63;;;10.45;;
49730;SDS011;35622;52.008;5.426;2023-07-22T04:35:49;16.85;;;9.13;;
49730;SDS011;35622;52.008;5.426;2023-07-22T04:38:16;17.95;;;9.10;;
49730;SDS011;35622;52.008;5.426;2023-07-22T04:40:44;15.20;;;8.25;;
49730;SDS011;35622;52.008;5.426;2023-07-22T04:43:10;18.77;;;9.40;;
49730;SDS011;35622;52.008;5.426;2023-07-22T04:45:37;21.17;;;9.95;;
49730;SDS011;35622;52.008;5.426;2023-07-22T04:48:05;17.48;;;9.13;;
49730;SDS011;35622;52.008;5.426;2023-07-22T04:50:31;17.48;;;9.50;;
49730;SDS011;35622;52.008;5.426;2023-07-22T04:52:56;18.55;;;9.30;;
49730;SDS011;35622;52.008;5.426;2023-07-22T04:55:22;16.88;;;9.52;;
49730;SDS011;35622;52.008;5.426;2023-07-22T04:57:48;15.90;;;9.00;;
49730;SDS011;35622;52.008;5.426;2023-07-22T05:00:14;16.80;;;9.35;;
49730;SDS011;35622;52.008;5.426;2023-07-22T05:02:41;17.00;;;9.32;;
49730;SDS011;35622;52.008;5.426;2023-07-22T05:05:11;17.98;;;9.05;;
49730;SDS011;35622;52.008;5.426;2023-07-22T05:07:37;18.25;;;9.80;;
49730;SDS011;35622;52.008;5.426;2023-07-22T05:10:02;16.75;;;9.13;;
49730;SDS011;35622;52.008;5.426;2023-07-22T05:12:28;18.52;;;9.27;;
49730;SDS011;35622;52.008;5.426;2023-07-22T05:14:53;15.68;;;9.40;;
49730;SDS011;35622;52.008;5.426;2023-07-22T05:17:19;20.25;;;10.43;;
49730;SDS011;35622;52.008;5.426;2023-07-22T05:19:45;19.98;;;10.30;;
49730;SDS011;35622;52.008;5.426;2023-07-22T05:22:10;17.58;;;9.82;;
49730;SDS011;35622;52.008;5.426;2023-07-22T05:24:36;16.30;;;9.77;;
49730;SDS011;35622;52.008;5.426;2023-07-22T05:27:01;20.40;;;10.48;;
49730;SDS011;35622;52.008;5.426;2023-07-22T05:29:27;20.63;;;10.68;;
49730;SDS011;35622;52.008;5.426;2023-07-22T05:31:52;17.05;;;9.52;;
49730;SDS011;35622;52.008;5.426;2023-07-22T05:34:18;17.38;;;9.45;;
49730;SDS011;35622;52.008;5.426;2023-07-22T05:36:43;20.13;;;9.57;;
49730;SDS011;35622;52.008;5.426;2023-07-22T05:39:09;17.33;;;10.05;;
49730;SDS011;35622;52.008;5.426;2023-07-22T05:41:34;18.90;;;9.50;;
49730;SDS011;35622;52.008;5.426;2023-07-22T05:44:00;19.00;;;9.65;;
49730;SDS011;35622;52.008;5.426;2023-07-22T05:46:26;18.70;;;10.27;;
49730;SDS011;35622;52.008;5.426;2023-07-22T05:48:51;17.25;;;9.88;;
49730;SDS011;35622;52.008;5.426;2023-07-22T05:51:17;21.20;;;11.45;;
49730;SDS011;35622;52.008;5.426;2023-07-22T05:53:43;22.80;;;12.05;;
49730;SDS011;35622;52.008;5.426;2023-07-22T05:56:08;20.95;;;11.02;;
49730;SDS011;35622;52.008;5.426;2023-07-22T05:58:34;19.25;;;11.00;;
49730;SDS011;35622;52.008;5.426;2023-07-22T06:01:00;21.17;;;11.65;;
49730;SDS011;35622;52.008;5.426;2023-07-22T06:03:26;18.35;;;10.15;;
49730;SDS011;35622;52.008;5.426;2023-07-22T06:05:51;21.80;;;11.82;;
49730;SDS011;35622;52.008;5.426;2023-07-22T06:08:17;18.02;;;10.48;;
49730;SDS011;35622;52.008;5.426;2023-07-22T06:10:42;20.25;;;11.00;;
49730;SDS011;35622;52.008;5.426;2023-07-22T06:13:08;22.17;;;12.70;;
49730;SDS011;35622;52.008;5.426;2023-07-22T06:15:34;22.58;;;11.82;;
49730;SDS011;35622;52.008;5.426;2023-07-22T06:18:00;20.75;;;11.00;;
49730;SDS011;35622;52.008;5.426;2023-07-22T06:20:26;31.23;;;15.10;;
49730;SDS011;35622;52.008;5.426;2023-07-22T06:22:52;25.13;;;13.73;;
49730;SDS011;35622;52.008;5.426;2023-07-22T06:25:17;28.63;;;15.70;;
49730;SDS011;35622;52.008;5.426;2023-07-22T06:27:43;25.45;;;14.30;;
49730;SDS011;35622;52.008;5.426;2023-07-22T06:30:09;34.00;;;19.27;;
49730;SDS011;35622;52.008;5.426;2023-07-22T06:32:36;37.78;;;20.42;;
49730;SDS011;35622;52.008;5.426;2023-07-22T06:35:02;37.83;;;20.30;;
49730;SDS011;35622;52.008;5.426;2023-07-22T06:37:29;38.47;;;20.63;;
49730;SDS011;35622;52.008;5.426;2023-07-22T06:39:55;34.90;;;19.27;;
49730;SDS011;35622;52.008;5.426;2023-07-22T06:42:20;28.40;;;18.58;;
49730;SDS011;35622;52.008;5.426;2023-07-22T06:44:46;28.48;;;18.00;;
49730;SDS011;35622;52.008;5.426;2023-07-22T06:47:11;29.20;;;19.02;;
49730;SDS011;35622;52.008;5.426;2023-07-22T06:49:37;27.38;;;17.92;;
49730;SDS011;35622;52.008;5.426;2023-07-22T06:52:03;29.02;;;18.08;;
49730;SDS011;35622;52.008;5.426;2023-07-22T06:54:28;28.30;;;17.42;;
49730;SDS011;35622;52.008;5.426;2023-07-22T06:56:54;28.98;;;18.42;;
49730;SDS011;35622;52.008;5.426;2023-07-22T06:59:20;27.40;;;16.95;;
49730;SDS011;35622;52.008;5.426;2023-07-22T07:01:45;26.27;;;17.05;;
49730;SDS011;35622;52.008;5.426;2023-07-22T07:04:11;26.85;;;17.30;;
49730;SDS011;35622;52.008;5.426;2023-07-22T07:06:36;26.95;;;17.75;;
49730;SDS011;35622;52.008;5.426;2023-07-22T07:09:03;28.27;;;17.92;;
49730;SDS011;35622;52.008;5.426;2023-07-22T07:11:30;29.67;;;18.98;;
49730;SDS011;35622;52.008;5.426;2023-07-22T07:13:56;29.35;;;18.23;;
49730;SDS011;35622;52.008;5.426;2023-07-22T07:16:26;26.30;;;17.27;;
49730;SDS011;35622;52.008;5.426;2023-07-22T07:18:53;26.55;;;16.23;;
49730;SDS011;35622;52.008;5.426;2023-07-22T07:21:20;30.08;;;17.40;;
49730;SDS011;35622;52.008;5.426;2023-07-22T07:23:46;26.63;;;16.60;;
49730;SDS011;35622;52.008;5.426;2023-07-22T07:26:12;27.70;;;17.77;;
49730;SDS011;35622;52.008;5.426;2023-07-22T07:28:38;27.80;;;16.30;;
49730;SDS011;35622;52.008;5.426;2023-07-22T07:31:04;27.80;;;17.50;;
49730;SDS011;35622;52.008;5.426;2023-07-22T07:33:30;26.42;;;16.73;;
49730;SDS011;35622;52.008;5.426;2023-07-22T07:35:55;23.67;;;16.33;;
49730;SDS011;35622;52.008;5.426;2023-07-22T07:38:21;25.80;;;16.25;;
49730;SDS011;35622;52.008;5.426;2023-07-22T07:40:50;26.92;;;16.70;;
49730;SDS011;35622;52.008;5.426;2023-07-22T07:43:21;28.92;;;15.98;;
49730;SDS011;35622;52.008;5.426;2023-07-22T07:45:46;22.45;;;14.25;;
49730;SDS011;35622;52.008;5.426;2023-07-22T07:48:12;25.95;;;14.98;;
49730;SDS011;35622;52.008;5.426;2023-07-22T07:50:37;27.35;;;15.13;;
49730;SDS011;35622;52.008;5.426;2023-07-22T07:53:03;26.95;;;15.13;;
49730;SDS011;35622;52.008;5.426;2023-07-22T07:55:28;24.48;;;14.55;;
49730;SDS011;35622;52.008;5.426;2023-07-22T07:57:54;23.50;;;13.90;;
49730;SDS011;35622;52.008;5.426;2023-07-22T08:00:19;19.23;;;12.40;;
49730;SDS011;35622;52.008;5.426;2023-07-22T08:02:46;20.95;;;13.05;;
49730;SDS011;35622;52.008;5.426;2023-07-22T08:05:12;19.80;;;12.23;;
49730;SDS011;35622;52.008;5.426;2023-07-22T08:07:38;15.70;;;10.27;;
49730;SDS011;35622;52.008;5.426;2023-07-22T08:10:04;14.82;;;9.35;;
49730;SDS011;35622;52.008;5.426;2023-07-22T08:12:32;16.13;;;9.55;;
49730;SDS011;35622;52.008;5.426;2023-07-22T08:14:58;17.23;;;9.60;;
49730;SDS011;35622;52.008;5.426;2023-07-22T08:17:24;15.50;;;9.82;;
49730;SDS011;35622;52.008;5.426;2023-07-22T08:19:49;16.42;;;9.48;;
49730;SDS011;35622;52.008;5.426;2023-07-22T08:22:15;14.88;;;9.18;;
49730;SDS011;35622;52.008;5.426;2023-07-22T08:24:40;16.50;;;8.95;;
49730;SDS011;35622;52.008;5.426;2023-07-22T08:27:08;16.65;;;9.40;;
49730;SDS011;35622;52.008;5.426;2023-07-22T08:29:34;17.75;;;10.45;;
49730;SDS011;35622;52.008;5.426;2023-07-22T08:31:59;14.77;;;9.68;;
49730;SDS011;35622;52.008;5.426;2023-07-22T08:34:25;16.92;;;10.15;;
49730;SDS011;35622;52.008;5.426;2023-07-22T08:36:51;15.52;;;9.80;;
49730;SDS011;35622;52.008;5.426;2023-07-22T08:39:17;15.73;;;9.25;;
49730;SDS011;35622;52.008;5.426;2023-07-22T08:41:44;13.57;;;8.85;;
49730;SDS011;35622;52.008;5.426;2023-07-22T08:44:14;15.88;;;9.55;;
49730;SDS011;35622;52.008;5.426;2023-07-22T08:46:44;15.38;;;9.05;;
49730;SDS011;35622;52.008;5.426;2023-07-22T08:49:11;17.25;;;9.68;;
49730;SDS011;35622;52.008;5.426;2023-07-22T08:51:36;16.38;;;9.88;;
49730;SDS011;35622;52.008;5.426;2023-07-22T08:54:02;16.52;;;9.40;;
49730;SDS011;35622;52.008;5.426;2023-07-22T08:56:28;13.93;;;8.40;;
49730;SDS011;35622;52.008;5.426;2023-07-22T08:58:54;14.75;;;9.27;;
49730;SDS011;35622;52.008;5.426;2023-07-22T09:01:20;16.40;;;9.68;;
49730;SDS011;35622;52.008;5.426;2023-07-22T09:03:48;13.70;;;8.60;;
49730;SDS011;35622;52.008;5.426;2023-07-22T09:06:17;14.85;;;8.15;;
49730;SDS011;35622;52.008;5.426;2023-07-22T09:08:46;14.63;;;9.05;;
49730;SDS011;35622;52.008;5.426;2023-07-22T09:11:12;13.45;;;7.30;;
49730;SDS011;35622;52.008;5.426;2023-07-22T09:13:38;14.15;;;7.85;;
49730;SDS011;35622;52.008;5.426;2023-07-22T09:16:06;11.43;;;7.25;;
49730;SDS011;35622;52.008;5.426;2023-07-22T09:18:32;13.52;;;7.07;;
49730;SDS011;35622;52.008;5.426;2023-07-22T09:20:59;10.50;;;6.18;;
49730;SDS011;35622;52.008;5.426;2023-07-22T09:23:34;9.40;;;6.15;;
49730;SDS011;35622;52.008;5.426;2023-07-22T09:26:08;10.13;;;5.60;;
49730;SDS011;35622;52.008;5.426;2023-07-22T09:28:51;9.40;;;6.30;;
49730;SDS011;35622;52.008;5.426;2023-07-22T09:31:20;11.80;;;7.72;;
49730;SDS011;35622;52.008;5.426;2023-07-22T09:33:46;11.60;;;8.30;;
49730;SDS011;35622;52.008;5.426;2023-07-22T09:36:12;12.52;;;7.47;;
49730;SDS011;35622;52.008;5.426;2023-07-22T09:38:38;10.23;;;6.25;;
49730;SDS011;35622;52.008;5.426;2023-07-22T09:41:04;12.30;;;7.85;;
49730;SDS011;35622;52.008;5.426;2023-07-22T09:43:30;10.30;;;6.80;;
49730;SDS011;35622;52.008;5.426;2023-07-22T10:05:41;14.93;;;7.90;;
49730;SDS011;35622;52.008;5.426;2023-07-22T10:08:08;11.38;;;5.97;;
49730;SDS011;35622;52.008;5.426;2023-07-22T10:10:37;14.15;;;7.18;;
49730;SDS011;35622;52.008;5.426;2023-07-22T10:13:03;11.05;;;6.25;;
49730;SDS011;35622;52.008;5.426;2023-07-22T10:15:30;14.02;;;6.38;;
49730;SDS011;35622;52.008;5.426;2023-07-22T10:17:58;11.20;;;6.75;;
49730;SDS011;35622;52.008;5.426;2023-07-22T10:20:25;9.10;;;5.45;;
49730;SDS011;35622;52.008;5.426;2023-07-22T10:22:51;8.27;;;6.70;;
49730;SDS011;35622;52.008;5.426;2023-07-22T10:25:18;10.73;;;6.13;;
49730;SDS011;35622;52.008;5.426;2023-07-22T10:27:44;10.38;;;5.63;;
49730;SDS011;35622;52.008;5.426;2023-07-22T10:30:11;9.25;;;7.07;;
49730;SDS011;35622;52.008;5.426;2023-07-22T10:32:39;8.85;;;6.05;;
49730;SDS011;35622;52.008;5.426;2023-07-22T10:35:09;9.15;;;6.03;;
49730;SDS011;35622;52.008;5.426;2023-07-22T10:37:37;10.80;;;5.88;;
49730;SDS011;35622;52.008;5.426;2023-07-22T10:41:10;6.90;;;4.93;;
49730;SDS011;35622;52.008;5.426;2023-07-22T10:43:18;7.65;;;5.20;;
49730;SDS011;35622;52.008;5.426;2023-07-22T10:45:50;9.00;;;5.60;;
49730;SDS011;35622;52.008;5.426;2023-07-22T10:48:17;8.70;;;5.03;;
49730;SDS011;35622;52.008;5.426;2023-07-22T10:50:47;8.10;;;5.47;;
49730;SDS011;35622;52.008;5.426;2023-07-22T10:53:27;5.82;;;4.45;;
49730;SDS011;35622;52.008;5.426;2023-07-22T11:01:22;6.40;;;4.43;;
49730;SDS011;35622;52.008;5.426;2023-07-22T11:04:07;5.90;;;3.92;;
49730;SDS011;35622;52.008;5.426;2023-07-22T11:11:58;8.40;;;3.78;;
49730;SDS011;35622;52.008;5.426;2023-07-22T11:14:26;8.05;;;4.70;;
49730;SDS011;35622;52.008;5.426;2023-07-22T11:17:00;7.78;;;4.45;;
49730;SDS011;35622;52.008;5.426;2023-07-22T11:19:28;8.48;;;5.03;;
49730;SDS011;35622;52.008;5.426;2023-07-22T11:21:54;11.55;;;5.55;;
49730;SDS011;35622;52.008;5.426;2023-07-22T11:24:20;10.35;;;5.00;;
49730;SDS011;35622;52.008;5.426;2023-07-22T11:26:47;7.90;;;4.80;;
49730;SDS011;35622;52.008;5.426;2023-07-22T11:29:16;6.95;;;4.85;;
49730;SDS011;35622;52.008;5.426;2023-07-22T11:31:45;5.47;;;3.88;;
49730;SDS011;35622;52.008;5.426;2023-07-22T11:34:13;7.35;;;4.20;;
49730;SDS011;35622;52.008;5.426;2023-07-22T11:36:40;9.93;;;5.20;;
49730;SDS011;35622;52.008;5.426;2023-07-22T11:39:07;8.13;;;5.47;;
49730;SDS011;35622;52.008;5.426;2023-07-22T11:41:40;6.90;;;5.30;;
49730;SDS011;35622;52.008;5.426;2023-07-22T11:44:06;7.97;;;5.32;;
49730;SDS011;35622;52.008;5.426;2023-07-22T11:46:57;9.38;;;5.47;;
49730;SDS011;35622;52.008;5.426;2023-07-22T11:51:59;7.97;;;5.05;;
49730;SDS011;35622;52.008;5.426;2023-07-22T11:54:30;8.50;;;5.00;;
49730;SDS011;35622;52.008;5.426;2023-07-22T11:56:57;8.55;;;4.82;;
49730;SDS011;35622;52.008;5.426;2023-07-22T11:59:36;8.73;;;6.32;;
49730;SDS011;35622;52.008;5.426;2023-07-22T12:02:03;8.13;;;6.15;;
49730;SDS011;35622;52.008;5.426;2023-07-22T12:04:32;10.55;;;7.70;;
49730;SDS011;35622;52.008;5.426;2023-07-22T12:06:59;11.48;;;8.93;;
49730;SDS011;35622;52.008;5.426;2023-07-22T12:09:25;12.68;;;9.75;;
49730;SDS011;35622;52.008;5.426;2023-07-22T12:11:58;11.57;;;8.95;;
49730;SDS011;35622;52.008;5.426;2023-07-22T12:14:25;10.93;;;9.68;;
49730;SDS011;35622;52.008;5.426;2023-07-22T12:16:58;13.85;;;9.38;;
49730;SDS011;35622;52.008;5.426;2023-07-22T12:19:24;10.38;;;8.55;;
49730;SDS011;35622;52.008;5.426;2023-07-22T12:21:52;10.25;;;8.13;;
49730;SDS011;35622;52.008;5.426;2023-07-22T12:24:17;12.73;;;9.10;;
49730;SDS011;35622;52.008;5.426;2023-07-22T12:26:43;13.00;;;9.25;;
49730;SDS011;35622;52.008;5.426;2023-07-22T12:29:08;10.20;;;8.93;;
49730;SDS011;35622;52.008;5.426;2023-07-22T12:31:34;9.65;;;8.65;;
49730;SDS011;35622;52.008;5.426;2023-07-22T12:34:00;11.57;;;8.85;;
49730;SDS011;35622;52.008;5.426;2023-07-22T12:36:25;14.45;;;9.27;;
49730;SDS011;35622;52.008;5.426;2023-07-22T12:38:51;12.00;;;8.73;;
49730;SDS011;35622;52.008;5.426;2023-07-22T12:41:18;10.05;;;8.25;;
49730;SDS011;35622;52.008;5.426;2023-07-22T12:43:43;10.13;;;8.30;;
49730;SDS011;35622;52.008;5.426;2023-07-22T12:46:09;10.55;;;7.88;;
49730;SDS011;35622;52.008;5.426;2023-07-22T12:48:34;8.30;;;7.07;;
49730;SDS011;35622;52.008;5.426;2023-07-22T12:51:00;10.50;;;7.32;;
49730;SDS011;35622;52.008;5.426;2023-07-22T12:53:28;7.75;;;6.85;;
49730;SDS011;35622;52.008;5.426;2023-07-22T12:55:53;7.80;;;6.30;;
49730;SDS011;35622;52.008;5.426;2023-07-22T12:58:19;7.45;;;5.60;;
49730;SDS011;35622;52.008;5.426;2023-07-22T13:00:45;9.93;;;6.00;;
49730;SDS011;35622;52.008;5.426;2023-07-22T13:03:11;8.98;;;5.72;;
49730;SDS011;35622;52.008;5.426;2023-07-22T13:05:37;8.13;;;5.70;;
49730;SDS011;35622;52.008;5.426;2023-07-22T13:08:02;8.97;;;5.17;;
49730;SDS011;35622;52.008;5.426;2023-07-22T13:10:28;7.07;;;4.97;;
49730;SDS011;35622;52.008;5.426;2023-07-22T13:12:54;6.47;;;4.50;;
49730;SDS011;35622;52.008;5.426;2023-07-22T13:15:20;7.69;;;4.86;;
49730;SDS011;35622;52.008;5.426;2023-07-22T13:17:45;7.53;;;5.03;;
49730;SDS011;35622;52.008;5.426;2023-07-22T13:20:16;8.98;;;5.18;;
49730;SDS011;35622;52.008;5.426;2023-07-22T13:22:42;7.45;;;4.95;;
49730;SDS011;35622;52.008;5.426;2023-07-22T13:25:08;8.77;;;4.97;;
49730;SDS011;35622;52.008;5.426;2023-07-22T13:27:34;6.03;;;4.43;;
49730;SDS011;35622;52.008;5.426;2023-07-22T13:30:00;6.38;;;5.13;;
49730;SDS011;35622;52.008;5.426;2023-07-22T13:32:26;9.35;;;4.85;;
49730;SDS011;35622;52.008;5.426;2023-07-22T13:34:52;6.72;;;4.72;;
49730;SDS011;35622;52.008;5.426;2023-07-22T13:37:17;7.47;;;4.95;;
49730;SDS011;35622;52.008;5.426;2023-07-22T13:39:43;8.85;;;5.07;;
49730;SDS011;35622;52.008;5.426;2023-07-22T13:42:09;9.75;;;5.85;;
49730;SDS011;35622;52.008;5.426;2023-07-22T13:44:35;9.40;;;5.50;;
49730;SDS011;35622;52.008;5.426;2023-07-22T13:47:00;7.60;;;4.60;;
49730;SDS011;35622;52.008;5.426;2023-07-22T13:49:26;6.38;;;4.63;;
49730;SDS011;35622;52.008;5.426;2023-07-22T13:51:51;7.03;;;4.43;;
49730;SDS011;35622;52.008;5.426;2023-07-22T13:54:19;6.88;;;4.07;;
49730;SDS011;35622;52.008;5.426;2023-07-22T13:56:45;6.30;;;4.38;;
49730;SDS011;35622;52.008;5.426;2023-07-22T13:59:12;8.90;;;3.97;;
49730;SDS011;35622;52.008;5.426;2023-07-22T14:01:38;8.18;;;3.65;;
49730;SDS011;35622;52.008;5.426;2023-07-22T14:04:04;5.60;;;3.40;;
49730;SDS011;35622;52.008;5.426;2023-07-22T14:06:30;6.60;;;3.42;;
49730;SDS011;35622;52.008;5.426;2023-07-22T14:08:57;12.00;;;3.85;;
49730;SDS011;35622;52.008;5.426;2023-07-22T14:11:23;7.53;;;3.65;;
49730;SDS011;35622;52.008;5.426;2023-07-22T14:13:48;7.25;;;3.20;;
49730;SDS011;35622;52.008;5.426;2023-07-22T14:16:16;4.70;;;3.30;;
49730;SDS011;35622;52.008;5.426;2023-07-22T14:18:42;5.00;;;2.85;;
49730;SDS011;35622;52.008;5.426;2023-07-22T14:21:08;4.18;;;2.83;;
49730;SDS011;35622;52.008;5.426;2023-07-22T14:23:35;5.25;;;3.00;;
49730;SDS011;35622;52.008;5.426;2023-07-22T14:26:01;6.53;;;3.25;;
49730;SDS011;35622;52.008;5.426;2023-07-22T14:28:27;4.72;;;2.72;;
49730;SDS011;35622;52.008;5.426;2023-07-22T14:30:53;4.88;;;2.58;;
49730;SDS011;35622;52.008;5.426;2023-07-22T14:33:18;4.53;;;2.47;;
49730;SDS011;35622;52.008;5.426;2023-07-22T14:35:44;4.53;;;2.35;;
49730;SDS011;35622;52.008;5.426;2023-07-22T14:38:10;4.15;;;2.60;;
49730;SDS011;35622;52.008;5.426;2023-07-22T14:40:36;4.25;;;2.40;;
49730;SDS011;35622;52.008;5.426;2023-07-22T14:43:02;5.07;;;2.83;;
49730;SDS011;35622;52.008;5.426;2023-07-22T14:45:27;4.68;;;2.70;;
49730;SDS011;35622;52.008;5.426;2023-07-22T14:47:53;4.72;;;2.60;;
49730;SDS011;35622;52.008;5.426;2023-07-22T14:50:18;3.97;;;2.40;;
49730;SDS011;35622;52.008;5.426;2023-07-22T14:52:44;5.18;;;2.55;;
49730;SDS011;35622;52.008;5.426;2023-07-22T14:55:10;4.57;;;2.28;;
49730;SDS011;35622;52.008;5.426;2023-07-22T14:57:35;3.15;;;2.10;;
49730;SDS011;35622;52.008;5.426;2023-07-22T15:00:01;3.95;;;2.08;;
49730;SDS011;35622;52.008;5.426;2023-07-22T15:02:27;6.20;;;2.72;;
49730;SDS011;35622;52.008;5.426;2023-07-22T15:04:53;4.35;;;2.28;;